Bristol, South Dakota
Current Conditions -  °F | °C
As of 3:53 PM on Thursday 23 Oct 2014 (Local Time) from KABR Reporting Station
Clear Clear  
Wind Chill: 71°   Ceiling: Unl
Heat Index: 71°   Visibility: 10mi
Dew Point: 43°   Wind: 14mph
Humidity: 36%   Direction: 180°S
Pressure: 29.88"   Gusts: NA
Location:  45.34°N, 97.75°W
Report Text: KABR 232053Z AUTO 18012KT 10SM CLR 22/06 A2988 RMK AO2 SLP120 T02170061 56020
Loading
Personal Weather Stations






























Interactive Weather Map
Tropical Storm Tracking
New forecast layout! Learn more

10-Day Weather Forecast

Advertisements
Track Severe Weather on mobile